createdAt,value
2022-11-18T00:03:49.604Z,9.65
2022-11-18T00:08:48.066Z,8.45
2022-11-18T00:14:05.321Z,9.43
2022-11-18T00:19:03.584Z,7.88
2022-11-18T00:24:01.859Z,8.23
2022-11-18T00:29:01.433Z,7.63
2022-11-18T00:33:59.657Z,8.10
2022-11-18T00:38:58.142Z,8.82
2022-11-18T00:43:56.381Z,8.82
2022-11-18T00:48:55.959Z,9.02
2022-11-18T00:53:55.042Z,8.50
2022-11-18T00:58:53.350Z,10.07
2022-11-18T01:03:51.602Z,8.98
2022-11-18T01:08:51.234Z,9.25
2022-11-18T01:13:50.268Z,8.75
2022-11-18T01:18:48.966Z,9.13
2022-11-18T01:23:47.230Z,7.95
2022-11-18T01:28:46.930Z,8.88
2022-11-18T01:33:46.832Z,8.85
2022-11-18T01:38:45.117Z,9.88
2022-11-18T01:43:55.363Z,9.40
2022-11-18T01:48:55.166Z,9.93
2022-11-18T01:53:55.524Z,7.93
2022-11-18T01:58:55.807Z,9.55
2022-11-18T02:03:54.780Z,9.57
2022-11-18T02:08:53.147Z,9.80
2022-11-18T02:13:51.384Z,8.73
2022-11-18T02:18:54.250Z,8.85
2022-11-18T02:24:08.920Z,8.90
2022-11-18T02:29:10.031Z,9.07
2022-11-18T02:34:12.122Z,9.52
2022-11-18T02:39:13.488Z,8.70
2022-11-18T02:44:14.916Z,8.45
2022-11-18T02:49:15.617Z,8.15
2022-11-18T02:54:15.431Z,8.40
2022-11-18T02:59:18.887Z,8.00
2022-11-18T03:04:18.176Z,10.57
2022-11-18T03:09:20.025Z,7.88
2022-11-18T03:14:24.890Z,10.05
2022-11-18T03:19:28.605Z,7.47
2022-11-18T03:24:30.500Z,7.32
2022-11-18T03:29:32.815Z,9.88
2022-11-18T03:34:32.179Z,8.35
2022-11-18T03:39:31.688Z,7.65
2022-11-18T03:44:32.033Z,7.57
2022-11-18T03:49:31.451Z,7.90
2022-11-18T03:54:31.289Z,7.30
2022-11-18T03:59:33.028Z,7.90
2022-11-18T04:04:31.284Z,6.85
2022-11-18T04:09:31.959Z,6.95
2022-11-18T04:14:32.487Z,6.90
2022-11-18T04:19:30.744Z,5.78
2022-11-18T04:24:29.019Z,8.20
2022-11-18T04:29:27.221Z,6.93
2022-11-18T04:34:26.851Z,6.03
2022-11-18T04:39:25.164Z,6.38
2022-11-18T04:44:23.706Z,7.93
2022-11-18T04:49:21.941Z,7.18
2022-11-18T04:54:21.767Z,5.72
2022-11-18T04:59:21.521Z,7.70
2022-11-18T05:04:20.892Z,6.43
2022-11-18T05:09:19.801Z,6.00
2022-11-18T05:14:19.920Z,11.77
2022-11-18T05:19:18.419Z,10.38
2022-11-18T05:24:16.876Z,25.83
2022-11-18T05:29:15.422Z,13.48
2022-11-18T05:34:15.552Z,24.13
2022-11-18T05:39:13.792Z,16.08
2022-11-18T05:44:12.186Z,17.20
2022-11-18T05:49:10.373Z,32.35
2022-11-18T05:54:10.428Z,24.45
2022-11-18T05:59:08.924Z,15.15
2022-11-18T06:04:10.929Z,14.45
2022-11-18T06:09:11.598Z,12.70
2022-11-18T06:14:12.266Z,17.10
2022-11-18T06:19:10.591Z,20.73
2022-11-18T06:24:11.117Z,26.85
2022-11-18T06:29:10.693Z,33.13
2022-11-18T06:34:08.925Z,31.50
2022-11-18T06:39:07.589Z,32.78
2022-11-18T06:44:07.267Z,35.65
2022-11-18T06:49:05.559Z,34.78
2022-11-18T06:54:10.212Z,31.05
2022-11-18T06:59:10.478Z,52.20
2022-11-18T07:04:09.181Z,26.02
2022-11-18T07:09:08.234Z,20.35
2022-11-18T07:14:06.529Z,23.65
2022-11-18T07:19:11.027Z,18.95
2022-11-18T07:24:09.647Z,24.52
2022-11-18T07:29:08.064Z,20.17
2022-11-18T07:34:06.654Z,22.77
2022-11-18T07:39:07.185Z,18.13
2022-11-18T17:13:30.380Z,113.90
2022-11-18T17:18:28.559Z,77.88
2022-11-18T17:23:28.945Z,52.92
2022-11-18T17:28:27.206Z,71.35
2022-11-18T17:33:26.789Z,81.57
2022-11-18T17:38:24.954Z,73.65
2022-11-18T17:43:23.245Z,69.45
2022-11-18T17:48:21.985Z,44.78
2022-11-18T17:53:22.453Z,51.42
2022-11-18T17:58:20.617Z,66.13
2022-11-18T18:03:18.767Z,54.97
2022-11-18T18:08:17.050Z,59.92
2022-11-18T18:13:34.264Z,71.15
2022-11-18T18:18:32.518Z,64.88
2022-11-18T18:23:30.705Z,63.42
2022-11-18T18:28:30.286Z,79.43
2022-11-18T18:33:28.517Z,88.45
2022-11-18T18:38:27.073Z,67.28
2022-11-18T18:43:25.268Z,60.72
2022-11-18T18:48:24.829Z,49.30
2022-11-18T18:53:22.998Z,40.78
2022-11-18T18:58:21.154Z,41.28
2022-11-18T19:03:20.605Z,52.83
2022-11-18T19:08:20.138Z,38.72
2022-11-18T19:13:18.315Z,97.05
2022-11-18T19:18:16.679Z,62.95
2022-11-18T19:23:14.983Z,43.08
2022-11-18T19:28:14.599Z,50.15
2022-11-18T19:33:13.013Z,37.40
2022-11-18T19:38:11.206Z,36.92
2022-11-18T19:43:09.444Z,32.70
2022-11-18T19:48:08.999Z,35.03
2022-11-18T19:53:27.135Z,34.88
2022-11-18T19:58:25.670Z,32.33
2022-11-18T20:03:25.338Z,26.40
2022-11-18T20:08:24.180Z,27.92
2022-11-18T20:13:22.331Z,25.55
2022-11-18T20:18:23.231Z,27.70
2022-11-18T20:23:22.768Z,23.75
2022-11-18T20:28:20.952Z,22.00
2022-11-18T20:33:19.100Z,23.55
2022-11-18T20:38:17.282Z,23.20
2022-11-18T20:43:16.911Z,26.17
2022-11-18T20:48:15.165Z,20.67
2022-11-18T20:53:13.395Z,20.80
2022-11-18T20:58:12.430Z,33.60
2022-11-18T21:03:12.884Z,25.98
2022-11-18T21:08:11.185Z,24.58
2022-11-18T21:13:26.982Z,22.98
2022-11-18T21:18:29.599Z,32.67
2022-11-18T21:23:27.827Z,20.67
2022-11-18T21:28:27.848Z,22.27
2022-11-18T21:33:27.413Z,24.05
2022-11-18T21:38:25.611Z,15.48
2022-11-18T21:43:50.213Z,16.02
2022-11-18T21:48:43.356Z,13.95
2022-11-18T21:53:41.563Z,15.68
2022-11-18T21:58:39.822Z,9.85
2022-11-18T22:03:38.742Z,10.68
2022-11-18T22:08:38.771Z,10.40
2022-11-18T22:13:36.957Z,8.43
2022-11-18T22:18:36.083Z,10.30
2022-11-18T22:23:34.556Z,10.23
2022-11-18T22:28:34.311Z,8.23
2022-11-18T22:33:32.607Z,43.42
2022-11-18T22:38:30.875Z,39.40
2022-11-18T22:43:29.219Z,41.45
2022-11-18T22:48:28.887Z,28.75
2022-11-18T22:53:27.199Z,12.68
2022-11-18T22:58:25.451Z,18.08
2022-11-18T23:03:23.615Z,28.08
2022-11-18T23:08:23.447Z,7.63
2022-11-18T23:13:38.954Z,12.40
2022-11-18T23:23:36.378Z,20.05
2022-11-18T23:28:34.790Z,26.95
2022-11-18T23:33:33.439Z,6.43
2022-11-18T23:38:32.129Z,12.57
2022-11-18T23:43:31.919Z,17.58
2022-11-18T23:48:33.124Z,18.30
2022-11-18T23:53:33.603Z,20.55
2022-11-18T23:58:33.186Z,12.55
